Chilcoot, California
Current Conditions -  °F | °C
As of 8:15 PM on Thursday 27 Nov 2014 (Local Time) from KRTS Reporting Station
Clear Clear  
Wind Chill: 54°   Ceiling: Unl
Heat Index: 54°   Visibility: 10mi
Dew Point: 14°   Wind: 9mph
Humidity: 21%   Direction: 270°W
Pressure: 30.13"   Gusts: NA
Location:  39.8°N, 120.14°W
Report Text: KRTS 280415Z AUTO 27008KT 10SM CLR 12/M10 A3013 RMK AO2
Loading
Personal Weather Stations






























Interactive Weather Map New forecast layout! Learn more

10-Day Weather Forecast

Advertisements
Track Severe Weather on mobile